sensor_id;sensor_type;location;lat;lon;timestamp;P1;durP1;ratioP1;P2;durP2;ratioP2
46282;SDS011;32017;43.700;11.820;2023-03-13T00:00:12;8.50;;;7.85;;
46282;SDS011;32017;43.700;11.820;2023-03-13T00:02:33;8.57;;;8.27;;
46282;SDS011;32017;43.700;11.820;2023-03-13T00:04:53;8.73;;;8.05;;
46282;SDS011;32017;43.700;11.820;2023-03-13T00:07:13;8.48;;;8.10;;
46282;SDS011;32017;43.700;11.820;2023-03-13T00:09:34;8.88;;;8.07;;
46282;SDS011;32017;43.700;11.820;2023-03-13T00:11:54;8.68;;;8.35;;
46282;SDS011;32017;43.700;11.820;2023-03-13T00:14:14;9.65;;;8.70;;
46282;SDS011;32017;43.700;11.820;2023-03-13T00:16:35;8.60;;;7.88;;
46282;SDS011;32017;43.700;11.820;2023-03-13T00:19:07;6.65;;;6.35;;
46282;SDS011;32017;43.700;11.820;2023-03-13T00:21:29;7.47;;;7.00;;
46282;SDS011;32017;43.700;11.820;2023-03-13T00:23:49;8.95;;;8.43;;
46282;SDS011;32017;43.700;11.820;2023-03-13T00:26:11;10.27;;;9.43;;
46282;SDS011;32017;43.700;11.820;2023-03-13T00:28:32;11.15;;;10.27;;
46282;SDS011;32017;43.700;11.820;2023-03-13T00:30:59;10.05;;;9.23;;
46282;SDS011;32017;43.700;11.820;2023-03-13T00:33:19;9.57;;;9.07;;
46282;SDS011;32017;43.700;11.820;2023-03-13T00:35:39;11.32;;;8.63;;
46282;SDS011;32017;43.700;11.820;2023-03-13T00:38:00;9.13;;;8.45;;
46282;SDS011;32017;43.700;11.820;2023-03-13T00:40:20;7.10;;;6.60;;
46282;SDS011;32017;43.700;11.820;2023-03-13T00:42:40;8.13;;;7.70;;
46282;SDS011;32017;43.700;11.820;2023-03-13T00:45:00;9.00;;;8.00;;
46282;SDS011;32017;43.700;11.820;2023-03-13T00:47:20;7.82;;;7.32;;
46282;SDS011;32017;43.700;11.820;2023-03-13T00:49:40;7.32;;;6.97;;
46282;SDS011;32017;43.700;11.820;2023-03-13T00:52:00;8.70;;;8.25;;
46282;SDS011;32017;43.700;11.820;2023-03-13T00:54:20;7.05;;;6.65;;
46282;SDS011;32017;43.700;11.820;2023-03-13T00:56:41;9.20;;;8.38;;
46282;SDS011;32017;43.700;11.820;2023-03-13T00:59:01;9.07;;;8.38;;
46282;SDS011;32017;43.700;11.820;2023-03-13T01:03:42;8.70;;;8.18;;
46282;SDS011;32017;43.700;11.820;2023-03-13T01:06:05;8.18;;;7.68;;
46282;SDS011;32017;43.700;11.820;2023-03-13T01:08:25;8.27;;;7.87;;
46282;SDS011;32017;43.700;11.820;2023-03-13T01:10:46;8.90;;;8.32;;
46282;SDS011;32017;43.700;11.820;2023-03-13T01:13:06;8.60;;;8.18;;
46282;SDS011;32017;43.700;11.820;2023-03-13T01:15:26;8.27;;;7.78;;
46282;SDS011;32017;43.700;11.820;2023-03-13T01:17:46;8.50;;;7.97;;
46282;SDS011;32017;43.700;11.820;2023-03-13T01:20:06;6.82;;;6.25;;
46282;SDS011;32017;43.700;11.820;2023-03-13T01:22:27;7.28;;;7.07;;
46282;SDS011;32017;43.700;11.820;2023-03-13T01:24:47;8.75;;;7.47;;
46282;SDS011;32017;43.700;11.820;2023-03-13T01:27:10;11.63;;;9.95;;
46282;SDS011;32017;43.700;11.820;2023-03-13T01:29:39;8.82;;;8.43;;
46282;SDS011;32017;43.700;11.820;2023-03-13T01:32:00;9.70;;;8.95;;
46282;SDS011;32017;43.700;11.820;2023-03-13T01:34:20;8.60;;;7.95;;
46282;SDS011;32017;43.700;11.820;2023-03-13T01:36:40;8.57;;;8.10;;
46282;SDS011;32017;43.700;11.820;2023-03-13T01:39:02;9.00;;;8.23;;
46282;SDS011;32017;43.700;11.820;2023-03-13T01:41:22;9.63;;;8.93;;
46282;SDS011;32017;43.700;11.820;2023-03-13T01:43:43;8.27;;;7.60;;
46282;SDS011;32017;43.700;11.820;2023-03-13T01:49:07;7.63;;;7.18;;
46282;SDS011;32017;43.700;11.820;2023-03-13T01:53:28;9.73;;;8.82;;
46282;SDS011;32017;43.700;11.820;2023-03-13T01:55:50;8.55;;;7.82;;
46282;SDS011;32017;43.700;11.820;2023-03-13T01:58:11;7.75;;;7.20;;
46282;SDS011;32017;43.700;11.820;2023-03-13T02:00:32;6.90;;;6.70;;
46282;SDS011;32017;43.700;11.820;2023-03-13T02:02:54;6.65;;;6.35;;
46282;SDS011;32017;43.700;11.820;2023-03-13T02:05:15;6.68;;;6.43;;
46282;SDS011;32017;43.700;11.820;2023-03-13T02:07:40;8.68;;;8.18;;
46282;SDS011;32017;43.700;11.820;2023-03-13T02:10:00;8.52;;;8.00;;
46282;SDS011;32017;43.700;11.820;2023-03-13T02:12:34;10.07;;;9.55;;
46282;SDS011;32017;43.700;11.820;2023-03-13T02:14:54;8.25;;;7.55;;
46282;SDS011;32017;43.700;11.820;2023-03-13T02:17:16;7.68;;;7.30;;
46282;SDS011;32017;43.700;11.820;2023-03-13T02:19:41;8.05;;;7.70;;
46282;SDS011;32017;43.700;11.820;2023-03-13T02:27:04;9.32;;;8.52;;
46282;SDS011;32017;43.700;11.820;2023-03-13T02:29:25;9.20;;;8.50;;
46282;SDS011;32017;43.700;11.820;2023-03-13T02:31:46;10.30;;;9.77;;
46282;SDS011;32017;43.700;11.820;2023-03-13T02:34:06;8.82;;;8.32;;
46282;SDS011;32017;43.700;11.820;2023-03-13T02:36:27;8.95;;;8.15;;
46282;SDS011;32017;43.700;11.820;2023-03-13T02:38:53;9.45;;;8.75;;
46282;SDS011;32017;43.700;11.820;2023-03-13T02:41:14;11.07;;;10.25;;
46282;SDS011;32017;43.700;11.820;2023-03-13T02:43:35;9.68;;;8.98;;
46282;SDS011;32017;43.700;11.820;2023-03-13T02:46:03;8.63;;;8.23;;
46282;SDS011;32017;43.700;11.820;2023-03-13T02:48:31;7.90;;;7.35;;
46282;SDS011;32017;43.700;11.820;2023-03-13T02:50:51;7.57;;;7.15;;
46282;SDS011;32017;43.700;11.820;2023-03-13T02:53:11;7.75;;;7.30;;
46282;SDS011;32017;43.700;11.820;2023-03-13T02:55:39;7.13;;;6.72;;
46282;SDS011;32017;43.700;11.820;2023-03-13T02:58:00;7.57;;;7.10;;
46282;SDS011;32017;43.700;11.820;2023-03-13T03:00:20;8.77;;;8.27;;
46282;SDS011;32017;43.700;11.820;2023-03-13T03:02:44;8.93;;;8.25;;
46282;SDS011;32017;43.700;11.820;2023-03-13T03:05:05;8.90;;;8.13;;
46282;SDS011;32017;43.700;11.820;2023-03-13T03:07:25;8.63;;;8.23;;
46282;SDS011;32017;43.700;11.820;2023-03-13T03:09:45;10.23;;;9.57;;
46282;SDS011;32017;43.700;11.820;2023-03-13T03:12:05;7.78;;;7.25;;
46282;SDS011;32017;43.700;11.820;2023-03-13T03:17:06;10.55;;;10.02;;
46282;SDS011;32017;43.700;11.820;2023-03-13T03:19:26;9.82;;;8.75;;
46282;SDS011;32017;43.700;11.820;2023-03-13T03:21:47;8.55;;;8.05;;
46282;SDS011;32017;43.700;11.820;2023-03-13T03:24:07;8.95;;;8.55;;
46282;SDS011;32017;43.700;11.820;2023-03-13T03:26:27;9.00;;;8.60;;
46282;SDS011;32017;43.700;11.820;2023-03-13T03:28:47;9.90;;;9.07;;
46282;SDS011;32017;43.700;11.820;2023-03-13T03:31:09;8.45;;;8.13;;
46282;SDS011;32017;43.700;11.820;2023-03-13T03:33:29;9.52;;;7.82;;
46282;SDS011;32017;43.700;11.820;2023-03-13T03:35:49;7.68;;;7.15;;
46282;SDS011;32017;43.700;11.820;2023-03-13T03:38:10;9.10;;;8.73;;
46282;SDS011;32017;43.700;11.820;2023-03-13T03:40:30;8.45;;;8.05;;
46282;SDS011;32017;43.700;11.820;2023-03-13T03:42:50;8.38;;;7.72;;
46282;SDS011;32017;43.700;11.820;2023-03-13T03:45:10;12.32;;;8.02;;
46282;SDS011;32017;43.700;11.820;2023-03-13T03:47:31;8.13;;;7.72;;
46282;SDS011;32017;43.700;11.820;2023-03-13T03:49:51;7.75;;;7.35;;
46282;SDS011;32017;43.700;11.820;2023-03-13T03:52:11;9.07;;;8.50;;
46282;SDS011;32017;43.700;11.820;2023-03-13T03:54:31;8.07;;;7.78;;
46282;SDS011;32017;43.700;11.820;2023-03-13T03:56:51;9.00;;;8.48;;
46282;SDS011;32017;43.700;11.820;2023-03-13T03:59:11;6.97;;;6.60;;
46282;SDS011;32017;43.700;11.820;2023-03-13T04:01:32;10.00;;;9.10;;
46282;SDS011;32017;43.700;11.820;2023-03-13T04:03:52;8.05;;;7.65;;
46282;SDS011;32017;43.700;11.820;2023-03-13T04:06:12;9.00;;;8.25;;
46282;SDS011;32017;43.700;11.820;2023-03-13T04:08:32;8.93;;;8.48;;
46282;SDS011;32017;43.700;11.820;2023-03-13T04:10:52;10.80;;;8.25;;
46282;SDS011;32017;43.700;11.820;2023-03-13T04:13:13;8.68;;;8.13;;
46282;SDS011;32017;43.700;11.820;2023-03-13T04:15:33;9.95;;;9.38;;
46282;SDS011;32017;43.700;11.820;2023-03-13T04:17:53;10.00;;;9.20;;
46282;SDS011;32017;43.700;11.820;2023-03-13T04:20:13;9.05;;;8.20;;
46282;SDS011;32017;43.700;11.820;2023-03-13T04:22:34;11.35;;;10.48;;
46282;SDS011;32017;43.700;11.820;2023-03-13T04:24:54;9.30;;;8.90;;
46282;SDS011;32017;43.700;11.820;2023-03-13T04:27:14;8.15;;;7.78;;
46282;SDS011;32017;43.700;11.820;2023-03-13T04:29:34;8.43;;;7.90;;
46282;SDS011;32017;43.700;11.820;2023-03-13T04:31:55;8.25;;;7.75;;
46282;SDS011;32017;43.700;11.820;2023-03-13T04:34:15;9.02;;;8.40;;
46282;SDS011;32017;43.700;11.820;2023-03-13T04:36:35;9.05;;;8.75;;
46282;SDS011;32017;43.700;11.820;2023-03-13T04:38:56;9.40;;;8.90;;
46282;SDS011;32017;43.700;11.820;2023-03-13T04:41:16;9.10;;;8.43;;
46282;SDS011;32017;43.700;11.820;2023-03-13T04:43:36;8.77;;;7.97;;
46282;SDS011;32017;43.700;11.820;2023-03-13T04:45:57;10.38;;;9.60;;
46282;SDS011;32017;43.700;11.820;2023-03-13T04:48:17;9.07;;;8.25;;
46282;SDS011;32017;43.700;11.820;2023-03-13T04:50:37;8.10;;;7.60;;
46282;SDS011;32017;43.700;11.820;2023-03-13T04:52:57;9.18;;;8.88;;
46282;SDS011;32017;43.700;11.820;2023-03-13T04:55:17;8.38;;;7.60;;
46282;SDS011;32017;43.700;11.820;2023-03-13T04:57:38;13.07;;;11.98;;
46282;SDS011;32017;43.700;11.820;2023-03-13T04:59:58;14.25;;;12.90;;
46282;SDS011;32017;43.700;11.820;2023-03-13T05:02:19;12.35;;;11.45;;
46282;SDS011;32017;43.700;11.820;2023-03-13T05:04:39;9.93;;;9.23;;
46282;SDS011;32017;43.700;11.820;2023-03-13T05:06:59;8.95;;;8.38;;
46282;SDS011;32017;43.700;11.820;2023-03-13T05:09:20;9.48;;;8.80;;
46282;SDS011;32017;43.700;11.820;2023-03-13T05:11:40;8.93;;;8.25;;
46282;SDS011;32017;43.700;11.820;2023-03-13T05:14:00;8.38;;;7.95;;
46282;SDS011;32017;43.700;11.820;2023-03-13T05:16:20;8.18;;;7.55;;
46282;SDS011;32017;43.700;11.820;2023-03-13T05:18:41;9.55;;;8.63;;
46282;SDS011;32017;43.700;11.820;2023-03-13T05:21:01;10.93;;;10.32;;
46282;SDS011;32017;43.700;11.820;2023-03-13T05:23:21;9.23;;;8.32;;
46282;SDS011;32017;43.700;11.820;2023-03-13T05:25:41;10.63;;;9.95;;
46282;SDS011;32017;43.700;11.820;2023-03-13T05:28:01;9.73;;;9.00;;
46282;SDS011;32017;43.700;11.820;2023-03-13T05:30:23;11.25;;;10.40;;
46282;SDS011;32017;43.700;11.820;2023-03-13T05:32:44;10.77;;;10.07;;
46282;SDS011;32017;43.700;11.820;2023-03-13T05:35:04;10.38;;;9.77;;
46282;SDS011;32017;43.700;11.820;2023-03-13T05:37:24;11.70;;;10.80;;
46282;SDS011;32017;43.700;11.820;2023-03-13T05:39:44;10.70;;;9.80;;
46282;SDS011;32017;43.700;11.820;2023-03-13T05:42:04;10.93;;;10.23;;
46282;SDS011;32017;43.700;11.820;2023-03-13T05:44:24;12.27;;;10.38;;
46282;SDS011;32017;43.700;11.820;2023-03-13T05:46:44;11.48;;;10.77;;
46282;SDS011;32017;43.700;11.820;2023-03-13T05:49:04;11.23;;;10.35;;
46282;SDS011;32017;43.700;11.820;2023-03-13T05:51:25;10.88;;;10.15;;
46282;SDS011;32017;43.700;11.820;2023-03-13T05:53:45;12.95;;;11.85;;
46282;SDS011;32017;43.700;11.820;2023-03-13T05:56:05;10.90;;;10.18;;
46282;SDS011;32017;43.700;11.820;2023-03-13T05:58:26;9.45;;;8.93;;
46282;SDS011;32017;43.700;11.820;2023-03-13T06:00:46;10.73;;;9.85;;
46282;SDS011;32017;43.700;11.820;2023-03-13T06:03:07;9.68;;;9.18;;
46282;SDS011;32017;43.700;11.820;2023-03-13T06:05:27;11.85;;;10.73;;
46282;SDS011;32017;43.700;11.820;2023-03-13T06:07:48;10.07;;;9.60;;
46282;SDS011;32017;43.700;11.820;2023-03-13T06:10:08;10.50;;;10.15;;
46282;SDS011;32017;43.700;11.820;2023-03-13T06:12:29;10.38;;;9.82;;
46282;SDS011;32017;43.700;11.820;2023-03-13T06:14:50;9.27;;;8.90;;
46282;SDS011;32017;43.700;11.820;2023-03-13T06:17:10;10.45;;;9.70;;
46282;SDS011;32017;43.700;11.820;2023-03-13T06:19:30;9.63;;;9.05;;
46282;SDS011;32017;43.700;11.820;2023-03-13T06:21:51;9.88;;;8.77;;
46282;SDS011;32017;43.700;11.820;2023-03-13T06:24:11;9.18;;;8.73;;
46282;SDS011;32017;43.700;11.820;2023-03-13T06:26:31;10.73;;;10.05;;
46282;SDS011;32017;43.700;11.820;2023-03-13T06:28:51;14.43;;;12.75;;
46282;SDS011;32017;43.700;11.820;2023-03-13T06:31:11;14.10;;;11.90;;
46282;SDS011;32017;43.700;11.820;2023-03-13T06:33:32;11.60;;;10.57;;
46282;SDS011;32017;43.700;11.820;2023-03-13T06:35:53;10.05;;;9.35;;
46282;SDS011;32017;43.700;11.820;2023-03-13T06:38:16;10.07;;;9.40;;
46282;SDS011;32017;43.700;11.820;2023-03-13T06:40:36;10.02;;;9.13;;
46282;SDS011;32017;43.700;11.820;2023-03-13T06:42:56;11.18;;;10.27;;
46282;SDS011;32017;43.700;11.820;2023-03-13T06:45:17;8.23;;;7.88;;
46282;SDS011;32017;43.700;11.820;2023-03-13T06:47:37;8.82;;;8.38;;
46282;SDS011;32017;43.700;11.820;2023-03-13T06:49:57;10.82;;;10.13;;
46282;SDS011;32017;43.700;11.820;2023-03-13T06:52:18;21.88;;;16.23;;
46282;SDS011;32017;43.700;11.820;2023-03-13T06:54:40;15.75;;;13.55;;
46282;SDS011;32017;43.700;11.820;2023-03-13T06:57:00;18.38;;;16.95;;
46282;SDS011;32017;43.700;11.820;2023-03-13T06:59:20;17.90;;;16.13;;
46282;SDS011;32017;43.700;11.820;2023-03-13T07:01:40;17.27;;;15.75;;
46282;SDS011;32017;43.700;11.820;2023-03-13T07:04:00;16.05;;;14.68;;
46282;SDS011;32017;43.700;11.820;2023-03-13T07:06:21;9.15;;;8.45;;
46282;SDS011;32017;43.700;11.820;2023-03-13T07:08:41;11.88;;;11.00;;
46282;SDS011;32017;43.700;11.820;2023-03-13T07:11:04;12.27;;;11.32;;
46282;SDS011;32017;43.700;11.820;2023-03-13T07:13:24;13.85;;;12.45;;
46282;SDS011;32017;43.700;11.820;2023-03-13T07:15:44;18.85;;;13.48;;
46282;SDS011;32017;43.700;11.820;2023-03-13T07:18:04;10.68;;;9.88;;
46282;SDS011;32017;43.700;11.820;2023-03-13T07:20:24;12.65;;;11.30;;
46282;SDS011;32017;43.700;11.820;2023-03-13T07:22:49;9.95;;;9.25;;
46282;SDS011;32017;43.700;11.820;2023-03-13T07:25:09;16.13;;;14.57;;
46282;SDS011;32017;43.700;11.820;2023-03-13T07:27:29;21.00;;;16.35;;
46282;SDS011;32017;43.700;11.820;2023-03-13T07:29:50;9.82;;;9.43;;
46282;SDS011;32017;43.700;11.820;2023-03-13T07:32:10;16.95;;;15.23;;
46282;SDS011;32017;43.700;11.820;2023-03-13T07:34:30;69.28;;;49.53;;
46282;SDS011;32017;43.700;11.820;2023-03-13T07:36:50;9.95;;;9.25;;
46282;SDS011;32017;43.700;11.820;2023-03-13T07:39:10;7.45;;;6.95;;
46282;SDS011;32017;43.700;11.820;2023-03-13T07:41:31;6.80;;;6.50;;
46282;SDS011;32017;43.700;11.820;2023-03-13T07:43:51;9.98;;;9.38;;
46282;SDS011;32017;43.700;11.820;2023-03-13T07:46:12;9.18;;;8.65;;
46282;SDS011;32017;43.700;11.820;2023-03-13T07:48:34;11.68;;;9.93;;
46282;SDS011;32017;43.700;11.820;2023-03-13T07:50:55;6.60;;;6.35;;
46282;SDS011;32017;43.700;11.820;2023-03-13T07:53:16;5.70;;;5.35;;
46282;SDS011;32017;43.700;11.820;2023-03-13T07:55:39;6.25;;;5.68;;
46282;SDS011;32017;43.700;11.820;2023-03-13T07:57:59;8.65;;;7.30;;
46282;SDS011;32017;43.700;11.820;2023-03-13T08:00:19;7.32;;;6.82;;
46282;SDS011;32017;43.700;11.820;2023-03-13T08:02:39;7.93;;;7.47;;
46282;SDS011;32017;43.700;11.820;2023-03-13T08:05:00;12.20;;;6.90;;
46282;SDS011;32017;43.700;11.820;2023-03-13T08:07:20;8.23;;;7.63;;
46282;SDS011;32017;43.700;11.820;2023-03-13T08:09:40;6.35;;;6.00;;
46282;SDS011;32017;43.700;11.820;2023-03-13T08:12:00;6.07;;;5.65;;
46282;SDS011;32017;43.700;11.820;2023-03-13T08:14:20;6.30;;;5.88;;
46282;SDS011;32017;43.700;11.820;2023-03-13T08:16:40;9.38;;;8.77;;
46282;SDS011;32017;43.700;11.820;2023-03-13T08:19:01;8.43;;;7.70;;
46282;SDS011;32017;43.700;11.820;2023-03-13T08:21:28;6.35;;;5.75;;
46282;SDS011;32017;43.700;11.820;2023-03-13T08:23:51;5.18;;;4.75;;
46282;SDS011;32017;43.700;11.820;2023-03-13T08:28:32;4.30;;;4.07;;
46282;SDS011;32017;43.700;11.820;2023-03-13T08:30:53;4.18;;;3.97;;
46282;SDS011;32017;43.700;11.820;2023-03-13T08:33:13;4.32;;;4.22;;
46282;SDS011;32017;43.700;11.820;2023-03-13T08:35:33;3.63;;;3.53;;
46282;SDS011;32017;43.700;11.820;2023-03-13T08:37:53;4.68;;;4.13;;
46282;SDS011;32017;43.700;11.820;2023-03-13T08:40:14;7.00;;;4.72;;
46282;SDS011;32017;43.700;11.820;2023-03-13T08:42:34;4.80;;;4.50;;
46282;SDS011;32017;43.700;11.820;2023-03-13T08:44:55;3.92;;;3.72;;
46282;SDS011;32017;43.700;11.820;2023-03-13T08:47:15;5.47;;;4.07;;
46282;SDS011;32017;43.700;11.820;2023-03-13T08:49:36;5.75;;;5.30;;
46282;SDS011;32017;43.700;11.820;2023-03-13T08:51:56;5.78;;;4.63;;
46282;SDS011;32017;43.700;11.820;2023-03-13T08:54:16;4.05;;;3.50;;
46282;SDS011;32017;43.700;11.820;2023-03-13T08:56:37;3.88;;;3.60;;
46282;SDS011;32017;43.700;11.820;2023-03-13T08:58:59;7.13;;;3.73;;
46282;SDS011;32017;43.700;11.820;2023-03-13T09:01:21;3.50;;;3.28;;
46282;SDS011;32017;43.700;11.820;2023-03-13T09:03:41;3.53;;;3.42;;
46282;SDS011;32017;43.700;11.820;2023-03-13T09:06:02;3.88;;;3.72;;
46282;SDS011;32017;43.700;11.820;2023-03-13T09:08:23;4.53;;;3.60;;
46282;SDS011;32017;43.700;11.820;2023-03-13T09:10:43;3.50;;;3.20;;
46282;SDS011;32017;43.700;11.820;2023-03-13T09:13:03;5.75;;;5.30;;
46282;SDS011;32017;43.700;11.820;2023-03-13T09:15:23;3.38;;;3.17;;
46282;SDS011;32017;43.700;11.820;2023-03-13T09:17:43;5.07;;;2.85;;
46282;SDS011;32017;43.700;11.820;2023-03-13T09:20:04;4.25;;;2.72;;
46282;SDS011;32017;43.700;11.820;2023-03-13T09:22:24;4.30;;;4.03;;
46282;SDS011;32017;43.700;11.820;2023-03-13T09:24:44;3.33;;;3.17;;
46282;SDS011;32017;43.700;11.820;2023-03-13T09:27:04;3.90;;;3.70;;
46282;SDS011;32017;43.700;11.820;2023-03-13T09:29:24;5.70;;;3.83;;
46282;SDS011;32017;43.700;11.820;2023-03-13T09:31:44;4.53;;;4.15;;
46282;SDS011;32017;43.700;11.820;2023-03-13T09:34:04;3.47;;;3.28;;
46282;SDS011;32017;43.700;11.820;2023-03-13T09:36:25;3.22;;;2.97;;
46282;SDS011;32017;43.700;11.820;2023-03-13T09:38:45;3.05;;;2.88;;
46282;SDS011;32017;43.700;11.820;2023-03-13T09:44:39;5.85;;;4.05;;
46282;SDS011;32017;43.700;11.820;2023-03-13T09:48:55;4.70;;;2.50;;
46282;SDS011;32017;43.700;11.820;2023-03-13T09:56:02;4.00;;;3.70;;
46282;SDS011;32017;43.700;11.820;2023-03-13T09:58:24;5.95;;;3.78;;
46282;SDS011;32017;43.700;11.820;2023-03-13T10:00:50;5.68;;;4.40;;
46282;SDS011;32017;43.700;11.820;2023-03-13T10:05:51;4.82;;;2.90;;
46282;SDS011;32017;43.700;11.820;2023-03-13T10:08:21;2.90;;;2.63;;
46282;SDS011;32017;43.700;11.820;2023-03-13T10:10:42;5.32;;;4.07;;
46282;SDS011;32017;43.700;11.820;2023-03-13T10:13:09;4.50;;;3.83;;
46282;SDS011;32017;43.700;11.820;2023-03-13T10:15:41;5.38;;;2.65;;
46282;SDS011;32017;43.700;11.820;2023-03-13T10:18:11;4.13;;;3.90;;
46282;SDS011;32017;43.700;11.820;2023-03-13T10:20:33;3.20;;;2.92;;
46282;SDS011;32017;43.700;11.820;2023-03-13T10:22:55;4.50;;;4.30;;
46282;SDS011;32017;43.700;11.820;2023-03-13T10:25:23;4.00;;;3.65;;
46282;SDS011;32017;43.700;11.820;2023-03-13T10:27:49;4.57;;;3.40;;
46282;SDS011;32017;43.700;11.820;2023-03-13T10:30:18;6.38;;;3.13;;
46282;SDS011;32017;43.700;11.820;2023-03-13T10:32:41;2.85;;;2.72;;
46282;SDS011;32017;43.700;11.820;2023-03-13T10:35:01;4.15;;;3.00;;
46282;SDS011;32017;43.700;11.820;2023-03-13T10:37:23;2.90;;;2.78;;
46282;SDS011;32017;43.700;11.820;2023-03-13T10:39:46;3.30;;;2.08;;
46282;SDS011;32017;43.700;11.820;2023-03-13T10:42:17;2.38;;;2.17;;
46282;SDS011;32017;43.700;11.820;2023-03-13T10:44:39;2.38;;;2.17;;
46282;SDS011;32017;43.700;11.820;2023-03-13T10:47:02;13.68;;;10.98;;
46282;SDS011;32017;43.700;11.820;2023-03-13T10:49:23;13.55;;;9.93;;
46282;SDS011;32017;43.700;11.820;2023-03-13T10:51:47;5.35;;;2.80;;
46282;SDS011;32017;43.700;11.820;2023-03-13T10:54:12;6.93;;;3.35;;
46282;SDS011;32017;43.700;11.820;2023-03-13T10:56:33;3.45;;;3.15;;
46282;SDS011;32017;43.700;11.820;2023-03-13T10:58:53;3.50;;;3.20;;
46282;SDS011;32017;43.700;11.820;2023-03-13T11:03:36;3.47;;;3.15;;
46282;SDS011;32017;43.700;11.820;2023-03-13T11:05:58;7.18;;;3.10;;
46282;SDS011;32017;43.700;11.820;2023-03-13T11:10:50;3.70;;;3.10;;
46282;SDS011;32017;43.700;11.820;2023-03-13T11:13:10;3.42;;;3.13;;
46282;SDS011;32017;43.700;11.820;2023-03-13T11:15:57;4.45;;;2.83;;
46282;SDS011;32017;43.700;11.820;2023-03-13T11:18:21;2.67;;;2.50;;
46282;SDS011;32017;43.700;11.820;2023-03-13T11:20:45;3.88;;;2.70;;
46282;SDS011;32017;43.700;11.820;2023-03-13T11:23:23;3.20;;;3.00;;
46282;SDS011;32017;43.700;11.820;2023-03-13T11:25:48;3.10;;;2.90;;
46282;SDS011;32017;43.700;11.820;2023-03-13T11:30:53;3.47;;;3.10;;
46282;SDS011;32017;43.700;11.820;2023-03-13T11:35:52;3.72;;;3.15;;
46282;SDS011;32017;43.700;11.820;2023-03-13T11:38:22;6.72;;;3.78;;
46282;SDS011;32017;43.700;11.820;2023-03-13T11:43:29;7.63;;;3.92;;
46282;SDS011;32017;43.700;11.820;2023-03-13T11:48:18;2.50;;;2.30;;
46282;SDS011;32017;43.700;11.820;2023-03-13T11:50:51;2.85;;;2.67;;
46282;SDS011;32017;43.700;11.820;2023-03-13T11:56:21;2.53;;;1.88;;
46282;SDS011;32017;43.700;11.820;2023-03-13T12:06:00;4.85;;;4.45;;
46282;SDS011;32017;43.700;11.820;2023-03-13T12:09:25;3.55;;;3.35;;
46282;SDS011;32017;43.700;11.820;2023-03-13T12:13:33;7.25;;;3.22;;
46282;SDS011;32017;43.700;11.820;2023-03-13T12:15:59;2.75;;;2.15;;
46282;SDS011;32017;43.700;11.820;2023-03-13T12:18:36;5.07;;;3.10;;
46282;SDS011;32017;43.700;11.820;2023-03-13T12:21:00;3.80;;;3.50;;
46282;SDS011;32017;43.700;11.820;2023-03-13T12:23:28;3.25;;;3.03;;
46282;SDS011;32017;43.700;11.820;2023-03-13T12:31:30;3.53;;;2.65;;
46282;SDS011;32017;43.700;11.820;2023-03-13T12:36:23;3.63;;;2.88;;
46282;SDS011;32017;43.700;11.820;2023-03-13T12:41:22;5.57;;;2.00;;
46282;SDS011;32017;43.700;11.820;2023-03-13T12:43:43;2.87;;;2.60;;
46282;SDS011;32017;43.700;11.820;2023-03-13T12:55:46;4.20;;;1.25;;
46282;SDS011;32017;43.700;11.820;2023-03-13T12:58:17;3.83;;;1.55;;
46282;SDS011;32017;43.700;11.820;2023-03-13T13:00:39;6.72;;;2.25;;
46282;SDS011;32017;43.700;11.820;2023-03-13T13:03:01;1.45;;;1.20;;
46282;SDS011;32017;43.700;11.820;2023-03-13T13:05:25;1.48;;;1.35;;
46282;SDS011;32017;43.700;11.820;2023-03-13T13:07:53;1.30;;;1.20;;
46282;SDS011;32017;43.700;11.820;2023-03-13T13:10:18;1.55;;;1.50;;
46282;SDS011;32017;43.700;11.820;2023-03-13T13:12:41;2.50;;;1.50;;
46282;SDS011;32017;43.700;11.820;2023-03-13T13:22:48;2.15;;;1.40;;
46282;SDS011;32017;43.700;11.820;2023-03-13T13:29:55;1.20;;;1.20;;
46282;SDS011;32017;43.700;11.820;2023-03-13T13:32:16;1.33;;;1.23;;
46282;SDS011;32017;43.700;11.820;2023-03-13T13:36:57;3.22;;;1.67;;
46282;SDS011;32017;43.700;11.820;2023-03-13T13:41:53;1.38;;;1.20;;
46282;SDS011;32017;43.700;11.820;2023-03-13T13:44:14;5.28;;;1.35;;
46282;SDS011;32017;43.700;11.820;2023-03-13T13:46:42;1.73;;;1.42;;
46282;SDS011;32017;43.700;11.820;2023-03-13T13:51:26;1.70;;;1.60;;
46282;SDS011;32017;43.700;11.820;2023-03-13T13:53:54;3.17;;;2.55;;
46282;SDS011;32017;43.700;11.820;2023-03-13T13:58:48;2.67;;;1.30;;
46282;SDS011;32017;43.700;11.820;2023-03-13T14:01:13;3.05;;;1.20;;
46282;SDS011;32017;43.700;11.820;2023-03-13T14:03:36;1.52;;;1.30;;
46282;SDS011;32017;43.700;11.820;2023-03-13T14:06:11;1.48;;;1.35;;
46282;SDS011;32017;43.700;11.820;2023-03-13T14:08:37;2.72;;;1.92;;
46282;SDS011;32017;43.700;11.820;2023-03-13T14:13:23;6.95;;;2.08;;
46282;SDS011;32017;43.700;11.820;2023-03-13T14:15:44;3.08;;;1.52;;
46282;SDS011;32017;43.700;11.820;2023-03-13T14:18:09;2.08;;;1.27;;
46282;SDS011;32017;43.700;11.820;2023-03-13T14:20:37;2.45;;;1.92;;
46282;SDS011;32017;43.700;11.820;2023-03-13T14:22:59;1.65;;;1.55;;
46282;SDS011;32017;43.700;11.820;2023-03-13T14:25:21;1.90;;;1.75;;
46282;SDS011;32017;43.700;11.820;2023-03-13T14:27:45;2.22;;;1.50;;
46282;SDS011;32017;43.700;11.820;2023-03-13T14:30:06;3.22;;;1.50;;
46282;SDS011;32017;43.700;11.820;2023-03-13T14:32:27;2.45;;;1.30;;
46282;SDS011;32017;43.700;11.820;2023-03-13T14:34:47;3.47;;;1.67;;
46282;SDS011;32017;43.700;11.820;2023-03-13T14:37:31;1.80;;;1.70;;
46282;SDS011;32017;43.700;11.820;2023-03-13T14:39:47;4.55;;;1.77;;
46282;SDS011;32017;43.700;11.820;2023-03-13T14:42:09;2.33;;;1.65;;
46282;SDS011;32017;43.700;11.820;2023-03-13T14:44:30;2.22;;;1.58;;
46282;SDS011;32017;43.700;11.820;2023-03-13T14:46:59;2.75;;;1.95;;
46282;SDS011;32017;43.700;11.820;2023-03-13T14:49:23;7.75;;;5.78;;
46282;SDS011;32017;43.700;11.820;2023-03-13T14:51:44;3.03;;;2.50;;
46282;SDS011;32017;43.700;11.820;2023-03-13T14:54:05;4.30;;;2.22;;
46282;SDS011;32017;43.700;11.820;2023-03-13T14:56:35;4.53;;;1.85;;
46282;SDS011;32017;43.700;11.820;2023-03-13T14:59:05;2.35;;;2.15;;
46282;SDS011;32017;43.700;11.820;2023-03-13T15:01:26;2.97;;;2.13;;
46282;SDS011;32017;43.700;11.820;2023-03-13T15:03:49;6.45;;;1.95;;
46282;SDS011;32017;43.700;11.820;2023-03-13T15:08:30;2.45;;;1.77;;
46282;SDS011;32017;43.700;11.820;2023-03-13T15:10:50;4.85;;;2.22;;
46282;SDS011;32017;43.700;11.820;2023-03-13T15:15:52;6.00;;;1.80;;
46282;SDS011;32017;43.700;11.820;2023-03-13T15:18:31;4.43;;;1.30;;
46282;SDS011;32017;43.700;11.820;2023-03-13T15:20:57;2.47;;;1.40;;
46282;SDS011;32017;43.700;11.820;2023-03-13T15:23:18;5.57;;;1.73;;
46282;SDS011;32017;43.700;11.820;2023-03-13T15:25:39;5.07;;;1.70;;
46282;SDS011;32017;43.700;11.820;2023-03-13T15:27:59;4.20;;;2.70;;
46282;SDS011;32017;43.700;11.820;2023-03-13T15:30:20;2.15;;;1.30;;
46282;SDS011;32017;43.700;11.820;2023-03-13T15:32:44;4.95;;;2.63;;
46282;SDS011;32017;43.700;11.820;2023-03-13T15:35:10;4.20;;;2.47;;
46282;SDS011;32017;43.700;11.820;2023-03-13T15:37:37;4.38;;;1.25;;
46282;SDS011;32017;43.700;11.820;2023-03-13T15:39:57;5.55;;;2.30;;
46282;SDS011;32017;43.700;11.820;2023-03-13T15:42:17;4.20;;;1.58;;
46282;SDS011;32017;43.700;11.820;2023-03-13T15:44:38;2.22;;;2.03;;
46282;SDS011;32017;43.700;11.820;2023-03-13T15:46:58;2.38;;;1.65;;